createdAt,value
2019-04-06T00:01:18.085Z,89.90
2019-04-06T00:03:47.869Z,90.00
2019-04-06T00:06:18.744Z,90.00
2019-04-06T00:08:48.545Z,90.00
2019-04-06T00:11:18.333Z,90.00
2019-04-06T00:13:48.122Z,89.90
2019-04-06T00:16:17.931Z,90.00
2019-04-06T00:18:47.732Z,90.00
2019-04-06T00:21:17.525Z,90.10
2019-04-06T00:23:47.325Z,90.20
2019-04-06T00:26:17.119Z,90.20
2019-04-06T00:28:46.937Z,90.20
2019-04-06T00:31:21.425Z,90.20
2019-04-06T00:33:51.283Z,90.10
2019-04-06T00:36:21.071Z,90.10
2019-04-06T00:38:50.883Z,90.10
2019-04-06T00:41:20.668Z,90.20
2019-04-06T00:43:50.460Z,90.20
2019-04-06T00:46:20.294Z,90.10
2019-04-06T00:48:50.128Z,90.10
2019-04-06T00:51:19.926Z,90.00
2019-04-06T00:53:49.727Z,90.00
2019-04-06T00:56:19.512Z,89.90
2019-04-06T00:58:49.344Z,89.70
2019-04-06T01:01:19.158Z,89.70
2019-04-06T01:03:48.935Z,89.80
2019-04-06T01:06:18.732Z,89.80
2019-04-06T01:08:48.512Z,89.80
2019-04-06T01:11:19.356Z,89.80
2019-04-06T01:13:50.216Z,89.80
2019-04-06T01:16:20.024Z,90.00
2019-04-06T01:18:49.832Z,90.10
2019-04-06T01:21:19.616Z,90.20
2019-04-06T01:23:49.404Z,90.20
2019-04-06T01:26:20.360Z,90.30
2019-04-06T01:28:50.155Z,90.40
2019-04-06T01:31:19.956Z,90.40
2019-04-06T01:33:49.738Z,90.30
2019-04-06T01:36:19.540Z,90.30
2019-04-06T01:38:49.350Z,90.30
2019-04-06T01:41:19.138Z,90.20
2019-04-06T01:43:48.950Z,90.10
2019-04-06T01:46:18.736Z,90.10
2019-04-06T01:48:48.528Z,90.20
2019-04-06T01:51:18.316Z,90.20
2019-04-06T01:53:48.124Z,90.20
2019-04-06T01:56:18.978Z,90.20
2019-04-06T01:58:48.974Z,90.20
2019-04-06T02:01:20.398Z,90.20
2019-04-06T02:03:50.200Z,90.20
2019-04-06T02:06:19.990Z,90.20
2019-04-06T02:08:49.780Z,90.10
2019-04-06T02:11:19.586Z,90.20
2019-04-06T02:13:49.392Z,90.20
2019-04-06T02:16:19.248Z,90.20
2019-04-06T02:18:49.088Z,90.20
2019-04-06T02:21:18.882Z,90.20
2019-04-06T02:23:48.798Z,90.20
2019-04-06T02:26:29.189Z,90.40
2019-04-06T02:28:50.098Z,90.40
2019-04-06T02:31:21.585Z,90.50
2019-04-06T02:33:59.012Z,90.60
2019-04-06T02:36:46.601Z,90.60
2019-04-06T02:39:20.766Z,90.60
2019-04-06T02:41:52.183Z,90.60
2019-04-06T02:44:21.978Z,90.70
2019-04-06T02:46:52.024Z,90.70
2019-04-06T02:49:21.985Z,90.80
2019-04-06T02:51:51.775Z,90.70
2019-04-06T02:54:22.648Z,90.70
2019-04-06T02:56:52.505Z,90.70
2019-04-06T02:59:22.382Z,90.70
2019-04-06T03:01:52.187Z,90.70
2019-04-06T03:04:22.279Z,90.80
2019-04-06T03:06:52.366Z,91.00
2019-04-06T03:09:22.266Z,91.00
2019-04-06T03:11:52.191Z,91.00
2019-04-06T03:14:22.062Z,91.00
2019-04-06T03:16:51.842Z,91.00
2019-04-06T03:19:21.653Z,91.00
2019-04-06T03:21:51.452Z,91.00
2019-04-06T03:24:21.421Z,90.90
2019-04-06T03:27:00.661Z,90.90
2019-04-06T03:29:22.826Z,90.90
2019-04-06T03:31:52.648Z,90.90
2019-04-06T03:34:23.199Z,90.90
2019-04-06T03:36:53.129Z,91.00
2019-04-06T03:39:22.912Z,91.00
2019-04-06T03:41:52.705Z,91.10
2019-04-06T03:44:22.488Z,91.10
2019-04-06T03:46:52.288Z,91.10
2019-04-06T03:49:22.071Z,91.10
2019-04-06T03:51:51.881Z,91.20
2019-04-06T03:54:21.657Z,91.30
2019-04-06T03:56:51.456Z,91.40
2019-04-06T03:59:21.234Z,91.30
2019-04-06T04:01:51.041Z,91.30
2019-04-06T04:04:20.935Z,91.50
2019-04-06T04:06:50.811Z,91.50
2019-04-06T04:09:20.755Z,91.10
2019-04-06T04:11:50.664Z,91.10
2019-04-06T04:14:20.764Z,91.00
2019-04-06T04:16:50.607Z,91.00
2019-04-06T04:19:20.482Z,91.00
2019-04-06T04:21:50.277Z,91.00
2019-04-06T04:24:20.048Z,91.00
2019-04-06T04:26:49.835Z,91.00
2019-04-06T04:29:19.627Z,91.00
2019-04-06T04:31:49.424Z,91.10
2019-04-06T04:34:19.221Z,91.20
2019-04-06T04:36:49.041Z,91.20
2019-04-06T04:39:19.126Z,91.20
2019-04-06T04:41:49.221Z,91.30
2019-04-06T04:44:19.020Z,91.30
2019-04-06T04:46:48.816Z,91.30
2019-04-06T04:49:18.619Z,91.30
2019-04-06T04:51:48.594Z,91.20
2019-04-06T04:54:18.406Z,91.20
2019-04-06T04:56:48.357Z,91.20
2019-04-06T04:59:18.168Z,91.20
2019-04-06T05:01:47.953Z,91.20
2019-04-06T05:04:17.765Z,91.10
2019-04-06T05:06:47.546Z,91.20
2019-04-06T05:09:17.346Z,91.20
2019-04-06T05:11:49.066Z,91.20
2019-04-06T05:14:53.800Z,91.20
2019-04-06T05:17:24.549Z,91.10
2019-04-06T05:19:54.694Z,91.10
2019-04-06T05:22:24.708Z,91.00
2019-04-06T05:24:54.621Z,90.90
2019-04-06T05:27:24.411Z,90.90
2019-04-06T05:29:54.207Z,91.10
2019-04-06T05:32:23.995Z,90.80
2019-04-06T05:34:53.781Z,90.80
2019-04-06T05:37:24.740Z,90.70
2019-04-06T05:39:54.532Z,90.80
2019-04-06T05:42:24.319Z,90.80
2019-04-06T05:44:54.110Z,90.80
2019-04-06T05:47:23.924Z,90.70
2019-04-06T05:49:53.688Z,90.60
2019-04-06T05:52:23.555Z,90.50
2019-04-06T05:54:53.339Z,90.60
2019-04-06T05:57:23.135Z,90.60
2019-04-06T05:59:52.955Z,90.50
2019-04-06T06:02:22.802Z,90.50
2019-04-06T06:04:52.578Z,90.50
2019-04-06T06:07:22.499Z,90.20
2019-04-06T06:09:52.326Z,90.50
2019-04-06T06:12:22.231Z,90.50
2019-04-06T06:14:52.000Z,90.50
2019-04-06T06:17:21.991Z,90.50
2019-04-06T06:19:51.807Z,90.40
2019-04-06T06:22:21.633Z,90.60
2019-04-06T06:24:51.456Z,90.20
2019-04-06T06:27:22.786Z,90.10
2019-04-06T06:29:52.736Z,90.10
2019-04-06T06:32:22.520Z,90.10
2019-04-06T06:34:52.654Z,90.00
2019-04-06T06:37:22.504Z,89.90
2019-04-06T06:39:52.317Z,89.90
2019-04-06T06:42:22.122Z,89.70
2019-04-06T06:44:52.145Z,89.70
2019-04-06T06:47:22.086Z,88.80
2019-04-06T06:49:52.861Z,88.70
2019-04-06T06:52:22.688Z,88.40
2019-04-06T06:54:52.502Z,88.30
2019-04-06T06:57:22.311Z,87.90
2019-04-06T06:59:52.167Z,88.10
2019-04-06T07:02:22.010Z,88.30
2019-04-06T07:04:51.830Z,88.50
2019-04-06T07:07:21.783Z,88.50
2019-04-06T07:09:51.728Z,88.40
2019-04-06T07:12:21.492Z,88.00
2019-04-06T07:14:51.290Z,86.90
2019-04-06T07:17:21.147Z,86.70
2019-04-06T07:19:50.961Z,86.70
2019-04-06T07:22:20.762Z,86.50
2019-04-06T07:24:50.557Z,86.10
2019-04-06T07:27:20.356Z,86.00
2019-04-06T07:29:50.177Z,86.00
2019-04-06T07:32:20.022Z,85.90
2019-04-06T07:34:49.842Z,85.50
2019-04-06T07:37:19.653Z,84.30
2019-04-06T07:39:49.456Z,84.50
2019-04-06T07:42:19.253Z,84.80
2019-04-06T07:44:49.102Z,84.20
2019-04-06T07:47:18.986Z,84.30
2019-04-06T07:49:48.778Z,84.60
2019-04-06T07:52:18.596Z,83.70
2019-04-06T07:54:48.393Z,83.40
2019-04-06T07:57:18.222Z,83.80
2019-04-06T07:59:48.021Z,83.90
2019-04-06T08:02:17.816Z,83.50
2019-04-06T08:04:47.619Z,83.30
2019-04-06T08:07:17.429Z,83.20
2019-04-06T08:09:47.223Z,82.70
2019-04-06T08:12:17.023Z,83.30
2019-04-06T08:14:46.873Z,83.20
2019-04-06T08:17:16.679Z,83.30
2019-04-06T08:19:46.489Z,83.20
2019-04-06T08:22:16.287Z,82.30
2019-04-06T08:24:46.179Z,82.30
2019-04-06T08:27:15.988Z,81.80
2019-04-06T08:29:45.796Z,82.30
2019-04-06T08:32:15.584Z,80.90
2019-04-06T08:34:45.580Z,81.10
2019-04-06T08:37:15.550Z,81.10
2019-04-06T08:39:45.575Z,81.60
2019-04-06T08:42:15.526Z,80.20
2019-04-06T08:44:45.324Z,79.90
2019-04-06T08:47:15.121Z,80.80
2019-04-06T08:49:44.935Z,81.00
2019-04-06T08:52:14.769Z,81.10
2019-04-06T08:54:44.575Z,80.30
2019-04-06T08:57:14.379Z,79.70
2019-04-06T08:59:44.195Z,78.80
2019-04-06T09:02:13.963Z,79.70
2019-04-06T09:04:43.769Z,79.70
2019-04-06T09:07:13.696Z,79.00
2019-04-06T09:09:43.563Z,79.80
2019-04-06T09:12:13.353Z,79.50
2019-04-06T09:14:43.176Z,79.50
2019-04-06T09:17:12.978Z,79.40
2019-04-06T09:19:42.803Z,78.60
2019-04-06T09:22:12.693Z,77.60
2019-04-06T09:24:42.675Z,78.00
2019-04-06T09:27:12.579Z,77.60
2019-04-06T09:29:42.375Z,78.10
2019-04-06T09:32:12.255Z,78.00
2019-04-06T09:34:42.087Z,78.30
2019-04-06T09:37:11.991Z,77.70
2019-04-06T09:39:41.803Z,77.80
2019-04-06T09:42:11.603Z,77.50
2019-04-06T09:44:54.952Z,77.10
2019-04-06T09:47:28.385Z,77.50
2019-04-06T09:50:15.923Z,76.80
2019-04-06T09:53:06.177Z,75.60
2019-04-06T09:55:40.029Z,75.00
2019-04-06T09:58:17.590Z,74.90
2019-04-06T10:00:59.330Z,74.60
2019-04-06T10:03:33.488Z,74.90
2019-04-06T10:06:10.673Z,75.10
2019-04-06T10:08:58.201Z,74.60
2019-04-06T10:11:32.635Z,74.90
2019-04-06T10:14:06.848Z,74.50
2019-04-06T10:16:41.376Z,74.60
2019-04-06T10:19:19.084Z,72.70
2019-04-06T10:21:56.470Z,73.40
2019-04-06T10:24:46.448Z,73.30
2019-04-06T10:27:36.257Z,73.00
2019-04-06T10:30:09.898Z,73.10
2019-04-06T10:32:41.430Z,72.60
2019-04-06T10:35:31.085Z,72.50
2019-04-06T10:38:05.340Z,71.40
2019-04-06T10:40:39.956Z,71.80
2019-04-06T10:43:29.388Z,71.20
2019-04-06T10:46:17.012Z,71.40
2019-04-06T10:49:00.668Z,70.90
2019-04-06T10:51:44.172Z,70.20
2019-04-06T10:54:18.120Z,70.30
2019-04-06T10:56:58.315Z,69.50
2019-04-06T10:59:41.780Z,70.20
2019-04-06T11:02:19.039Z,70.70
2019-04-06T11:04:50.485Z,70.50
2019-04-06T11:07:34.004Z,70.30
2019-04-06T11:10:07.877Z,70.00
2019-04-06T11:12:48.486Z,69.00
2019-04-06T11:15:28.734Z,69.10
2019-04-06T11:18:02.876Z,70.10
2019-04-06T11:20:43.128Z,69.20
2019-04-06T11:23:31.040Z,69.10
2019-04-06T11:26:09.189Z,69.40
2019-04-06T11:28:40.657Z,68.70
2019-04-06T11:31:12.082Z,69.30
2019-04-06T11:34:00.194Z,68.50
2019-04-06T11:36:32.001Z,68.30
2019-04-06T11:39:19.924Z,68.30
2019-04-06T11:41:51.368Z,68.70
2019-04-06T11:44:31.767Z,68.10
2019-04-06T11:47:03.402Z,67.80
2019-04-06T11:49:51.553Z,67.00
2019-04-06T11:52:29.141Z,67.40
2019-04-06T11:55:00.674Z,67.30
2019-04-06T11:57:34.606Z,67.30
2019-04-06T12:00:26.508Z,66.10
2019-04-06T12:02:59.337Z,66.30
2019-04-06T12:05:36.436Z,65.90
2019-04-06T12:08:13.856Z,65.50
2019-04-06T12:10:50.901Z,65.70
2019-04-06T12:13:40.468Z,65.50
2019-04-06T12:16:28.872Z,65.40
2019-04-06T12:19:00.654Z,64.10
2019-04-06T12:21:38.358Z,64.50
2019-04-06T12:24:09.820Z,64.90
2019-04-06T12:26:44.316Z,63.70
2019-04-06T12:29:31.767Z,64.40
2019-04-06T12:32:03.553Z,64.30
2019-04-06T12:34:51.691Z,63.70
2019-04-06T12:37:23.220Z,64.80
2019-04-06T12:40:00.542Z,64.00
2019-04-06T12:42:38.233Z,63.60
2019-04-06T12:45:19.310Z,63.30
2019-04-06T12:47:56.316Z,64.00
2019-04-06T12:50:44.282Z,64.00
2019-04-06T12:53:15.834Z,63.60
2019-04-06T12:56:04.004Z,62.90
2019-04-06T12:58:41.564Z,62.50
2019-04-06T13:01:29.712Z,62.70
2019-04-06T13:04:17.663Z,62.50
2019-04-06T13:06:52.149Z,61.40
2019-04-06T13:09:48.838Z,61.00
2019-04-06T13:12:38.077Z,61.90
2019-04-06T13:15:32.116Z,60.40
2019-04-06T13:18:11.795Z,59.90
2019-04-06T13:21:01.069Z,59.80
2019-04-06T13:23:48.612Z,59.70
2019-04-06T13:26:32.200Z,58.50
2019-04-06T13:29:18.695Z,59.70
2019-04-06T13:32:02.875Z,59.90
2019-04-06T13:34:49.266Z,59.10
2019-04-06T13:37:37.120Z,57.40
2019-04-06T13:40:20.898Z,57.50
2019-04-06T13:42:55.186Z,57.20
2019-04-06T13:45:26.870Z,57.50
2019-04-06T13:48:14.651Z,58.80
2019-04-06T13:50:51.943Z,59.40
2019-04-06T13:53:35.663Z,59.30
2019-04-06T13:56:07.107Z,58.40
2019-04-06T13:58:38.578Z,60.00
2019-04-06T14:01:16.881Z,60.00
2019-04-06T14:04:02.561Z,60.60
2019-04-06T14:06:34.036Z,61.00
2019-04-06T14:09:12.564Z,60.90
2019-04-06T14:11:46.662Z,61.10
2019-04-06T14:14:20.544Z,61.30
2019-04-06T14:17:01.033Z,61.80
2019-04-06T14:19:35.495Z,61.30
2019-04-06T14:22:09.897Z,61.10
2019-04-06T14:24:50.699Z,62.20
2019-04-06T14:27:25.244Z,62.40
2019-04-06T14:30:02.586Z,62.70
2019-04-06T14:32:34.362Z,61.70
2019-04-06T14:35:13.066Z,62.00
2019-04-06T14:37:53.599Z,61.90
2019-04-06T14:40:40.146Z,61.30
2019-04-06T14:43:14.535Z,61.00
2019-04-06T14:46:02.041Z,60.40
2019-04-06T14:48:37.657Z,59.30
2019-04-06T14:51:09.416Z,59.60
2019-04-06T14:53:40.930Z,60.70
2019-04-06T14:56:17.887Z,60.60
2019-04-06T14:58:58.322Z,61.30
2019-04-06T15:01:56.623Z,61.80
2019-04-06T15:04:26.896Z,62.40
2019-04-06T15:07:11.189Z,63.10
2019-04-06T15:09:49.928Z,63.30
2019-04-06T15:12:23.299Z,63.10
2019-04-06T15:15:06.341Z,62.90
2019-04-06T15:17:55.352Z,63.20
2019-04-06T15:20:27.085Z,64.00
2019-04-06T15:23:10.290Z,63.80
2019-04-06T15:25:44.572Z,64.40
2019-04-06T15:28:16.172Z,63.50
2019-04-06T15:31:03.664Z,62.40
2019-04-06T15:33:51.588Z,61.50
2019-04-06T15:36:26.364Z,59.90
2019-04-06T15:39:00.604Z,60.70
2019-04-06T15:41:34.854Z,60.90
2019-04-06T15:46:52.483Z,60.60
2019-04-06T15:49:26.656Z,61.20
2019-04-06T15:52:15.917Z,61.10
2019-04-06T15:54:53.484Z,61.80
2019-04-06T15:57:30.651Z,62.00
2019-04-06T16:00:04.587Z,61.70
2019-04-06T16:02:52.224Z,61.90
2019-04-06T16:05:29.736Z,61.90
2019-04-06T16:08:06.941Z,62.00
2019-04-06T16:10:54.669Z,62.50
2019-04-06T16:13:32.177Z,62.50
2019-04-06T16:16:05.264Z,62.70
2019-04-06T16:18:40.041Z,61.30
2019-04-06T16:21:11.651Z,61.70
2019-04-06T16:24:01.754Z,61.80
2019-04-06T16:26:40.594Z,61.10
2019-04-06T16:29:21.288Z,61.60
2019-04-06T16:31:52.728Z,61.30
2019-04-06T16:34:24.495Z,62.00
2019-04-06T16:37:06.560Z,61.50
2019-04-06T16:39:54.073Z,62.00
2019-04-06T16:42:31.984Z,61.50
2019-04-06T16:45:15.936Z,61.90
2019-04-06T16:48:03.873Z,61.90
2019-04-06T16:50:51.774Z,62.30
2019-04-06T16:53:32.246Z,62.50
2019-04-06T16:56:21.707Z,61.90
2019-04-06T16:58:53.929Z,61.80
2019-04-06T17:01:31.140Z,61.80
2019-04-06T17:04:05.901Z,61.60
2019-04-06T17:06:37.418Z,62.10
2019-04-06T17:09:25.446Z,62.60
2019-04-06T17:12:13.108Z,62.90
2019-04-06T17:14:57.230Z,63.60
2019-04-06T17:17:41.173Z,63.90
2019-04-06T17:20:15.194Z,63.80
2019-04-06T17:22:46.632Z,64.10
2019-04-06T17:25:27.801Z,64.40
2019-04-06T17:28:15.382Z,64.30
2019-04-06T17:33:40.138Z,64.70
2019-04-06T17:36:14.740Z,64.70
2019-04-06T17:38:46.559Z,64.80
2019-04-06T17:41:28.504Z,65.20
2019-04-06T17:44:02.749Z,65.40
2019-04-06T17:46:50.474Z,65.50
2019-04-06T17:49:24.830Z,66.00
2019-04-06T17:52:14.741Z,65.90
2019-04-06T17:55:04.257Z,66.30
2019-04-06T17:57:42.973Z,66.60
2019-04-06T18:00:17.610Z,66.30
2019-04-06T18:03:05.161Z,66.80
2019-04-06T18:05:48.861Z,67.00
2019-04-06T18:08:29.121Z,67.10
2019-04-06T18:11:16.759Z,67.50
2019-04-06T18:13:48.197Z,67.70
2019-04-06T18:16:19.824Z,67.60
2019-04-06T18:18:49.895Z,68.10
2019-04-06T18:21:19.961Z,68.40
2019-04-06T18:23:49.867Z,68.70
2019-04-06T18:26:19.811Z,68.70
2019-04-06T18:28:49.691Z,68.90
2019-04-06T18:31:23.870Z,69.60
2019-04-06T18:33:53.685Z,69.50
2019-04-06T18:36:25.434Z,69.70
2019-04-06T18:39:15.187Z,69.60
2019-04-06T18:41:45.386Z,70.00
2019-04-06T18:44:15.394Z,70.30
2019-04-06T18:46:45.268Z,70.40
2019-04-06T18:49:15.088Z,70.70
2019-04-06T18:51:44.910Z,70.90
2019-04-06T18:54:14.728Z,71.00
2019-04-06T18:56:44.552Z,71.30
2019-04-06T18:59:14.355Z,71.50
2019-04-06T19:01:44.176Z,71.50
2019-04-06T19:04:15.086Z,71.60
2019-04-06T19:06:44.907Z,71.80
2019-04-06T19:09:23.030Z,72.00
2019-04-06T19:11:54.252Z,72.10
2019-04-06T19:14:17.929Z,72.20
2019-04-06T19:16:47.847Z,72.40
2019-04-06T19:19:18.216Z,72.60
2019-04-06T19:21:48.175Z,72.70
2019-04-06T19:24:17.961Z,72.80
2019-04-06T19:26:47.826Z,72.90
2019-04-06T19:29:17.655Z,72.80
2019-04-06T19:31:47.895Z,72.90
2019-04-06T19:34:17.835Z,73.20
2019-04-06T19:36:47.687Z,73.40
2019-04-06T19:39:18.740Z,73.40
2019-04-06T19:41:48.643Z,73.60
2019-04-06T19:44:18.538Z,73.90
2019-04-06T19:46:48.373Z,74.10
2019-04-06T19:49:18.187Z,74.30
2019-04-06T19:51:48.055Z,74.50
2019-04-06T19:54:17.894Z,74.50
2019-04-06T19:56:47.720Z,74.60
2019-04-06T19:59:17.536Z,74.50
2019-04-06T20:01:47.336Z,74.60
2019-04-06T20:04:17.192Z,74.80
2019-04-06T20:06:47.013Z,74.90
2019-04-06T20:09:16.961Z,75.10
2019-04-06T20:11:46.743Z,75.30
2019-04-06T20:14:16.536Z,75.70
2019-04-06T20:16:46.448Z,75.70
2019-04-06T20:19:16.320Z,75.40
2019-04-06T20:21:48.087Z,75.50
2019-04-06T20:24:17.973Z,75.60
2019-04-06T20:26:47.774Z,75.60
2019-04-06T20:29:18.127Z,75.60
2019-04-06T20:31:48.067Z,75.90
2019-04-06T20:34:17.892Z,75.80
2019-04-06T20:36:47.691Z,75.80
2019-04-06T20:39:18.672Z,75.80
2019-04-06T20:41:48.460Z,75.90
2019-04-06T20:44:18.362Z,76.00
2019-04-06T20:46:48.357Z,76.10
2019-04-06T20:49:18.209Z,76.50
2019-04-06T20:51:47.983Z,76.40
2019-04-06T20:54:17.799Z,76.50
2019-04-06T20:56:53.899Z,76.60
2019-04-06T20:59:19.294Z,76.80
2019-04-06T21:01:49.422Z,76.70
2019-04-06T21:04:19.351Z,76.80
2019-04-06T21:06:49.259Z,76.90
2019-04-06T21:09:19.178Z,76.90
2019-04-06T21:11:49.588Z,76.80
2019-04-06T21:14:19.475Z,77.00
2019-04-06T21:16:49.264Z,77.20
2019-04-06T21:19:19.352Z,77.10
2019-04-06T21:21:49.287Z,77.20
2019-04-06T21:24:19.115Z,77.40
2019-04-06T21:26:48.936Z,77.50
2019-04-06T21:29:19.078Z,77.70
2019-04-06T21:31:48.964Z,77.80
2019-04-06T21:34:19.331Z,78.10
2019-04-06T21:36:49.584Z,78.30
2019-04-06T21:39:19.418Z,78.20
2019-04-06T21:41:49.770Z,78.30
2019-04-06T21:44:20.364Z,78.50
2019-04-06T21:46:50.431Z,78.70
2019-04-06T21:49:20.235Z,78.60
2019-04-06T21:51:51.566Z,78.70
2019-04-06T21:54:21.465Z,78.80
2019-04-06T21:56:51.801Z,78.90
2019-04-06T21:59:21.739Z,79.00
2019-04-06T22:01:52.427Z,79.20
2019-04-06T22:04:26.080Z,79.20
2019-04-06T22:06:54.028Z,79.30
2019-04-06T22:09:24.216Z,79.50
2019-04-06T22:11:54.579Z,79.50
2019-04-06T22:14:24.906Z,79.60
2019-04-06T22:16:54.977Z,79.60
2019-04-06T22:19:25.311Z,79.70
2019-04-06T22:21:55.385Z,79.90
2019-04-06T22:24:26.029Z,80.00
2019-04-06T22:26:56.225Z,80.00
2019-04-06T22:29:26.167Z,80.30
2019-04-06T22:31:55.954Z,80.20
2019-04-06T22:34:36.416Z,80.40
2019-04-06T22:36:57.247Z,80.50
2019-04-06T22:39:27.068Z,80.70
2019-04-06T22:41:57.135Z,80.80
2019-04-06T22:44:27.048Z,81.10
2019-04-06T22:46:56.881Z,81.40
2019-04-06T22:49:27.189Z,81.50
2019-04-06T22:51:57.095Z,81.70
2019-04-06T22:54:26.908Z,81.60
2019-04-06T22:56:57.721Z,81.80
2019-04-06T22:59:27.572Z,81.90
2019-04-06T23:01:57.355Z,82.00
2019-04-06T23:04:28.815Z,82.10
2019-04-06T23:07:03.184Z,82.20
2019-04-06T23:09:33.422Z,82.70
2019-04-06T23:12:03.344Z,82.60
2019-04-06T23:14:33.143Z,82.70
2019-04-06T23:17:03.795Z,82.80
2019-04-06T23:19:35.239Z,82.90
2019-04-06T23:22:05.802Z,83.00
2019-04-06T23:24:36.270Z,83.10
2019-04-06T23:27:06.889Z,83.10
2019-04-06T23:29:36.847Z,83.10
2019-04-06T23:32:06.812Z,83.40
2019-04-06T23:34:36.607Z,83.60
2019-04-06T23:37:06.485Z,84.10
2019-04-06T23:39:36.262Z,84.00
2019-04-06T23:42:06.059Z,83.90
2019-04-06T23:44:36.160Z,84.00
2019-04-06T23:47:07.095Z,84.30
2019-04-06T23:49:38.394Z,84.30
2019-04-06T23:52:08.330Z,84.40
2019-04-06T23:54:39.911Z,84.60
2019-04-06T23:57:10.249Z,84.70
2019-04-06T23:59:40.048Z,84.90
